Time,TemperatureF,DewpointF,PressureIn,WindDirection,WindDirectionDegrees,WindSpeedMPH,WindSpeedGustMPH,Humidity,HourlyPrecipIn,Conditions,Clouds,dailyrainin,SolarRadiationWatts/m^2,SoftwareType,DateUTC
2013-01-16 00:02:00,41.0,33.0,-100.00,North,1,3.0,5.0,74,-99.99,,,0.00,0.000000,,2013-01-16 08:02:00,
2013-01-16 00:12:00,41.0,33.0,-100.00,North,1,3.0,5.0,74,-99.99,,,0.00,0.000000,,2013-01-16 08:12:00,
2013-01-16 00:42:00,38.0,33.0,-100.00,North,359,5.0,9.0,83,-99.99,,,0.00,0.000000,,2013-01-16 08:42:00,
2013-01-16 00:52:00,38.0,33.0,-100.00,North,359,5.0,9.0,83,-99.99,,,0.00,0.000000,,2013-01-16 08:52:00,
2013-01-16 01:02:00,38.0,33.0,-100.00,North,359,5.0,9.0,83,-99.99,,,0.00,0.000000,,2013-01-16 09:02:00,
2013-01-16 01:11:00,38.0,33.0,-100.00,North,359,5.0,9.0,83,-99.99,,,0.00,0.000000,,2013-01-16 09:11:00,
2013-01-16 01:42:00,37.0,33.0,-100.00,North,1,6.0,9.0,85,-99.99,,,0.00,0.000000,,2013-01-16 09:42:00,
2013-01-16 01:53:00,37.0,33.0,-100.00,North,1,6.0,9.0,85,-99.99,,,0.00,0.000000,,2013-01-16 09:53:00,
2013-01-16 02:02:00,37.0,33.0,-100.00,North,1,6.0,9.0,85,-99.99,,,0.00,0.000000,,2013-01-16 10:02:00,
2013-01-16 02:11:00,37.0,33.0,-100.00,North,1,6.0,9.0,85,-99.99,,,0.00,0.000000,,2013-01-16 10:11:00,
2013-01-16 02:42:00,36.0,33.0,-100.00,North,351,5.0,9.0,87,-99.99,,,0.00,0.000000,,2013-01-16 10:42:00,
2013-01-16 02:53:00,36.0,33.0,-100.00,North,351,5.0,9.0,87,-99.99,,,0.00,0.000000,,2013-01-16 10:53:00,
2013-01-16 03:02:00,36.0,33.0,-100.00,North,351,5.0,9.0,87,-99.99,,,0.00,0.000000,,2013-01-16 11:02:00,
2013-01-16 03:11:00,36.0,33.0,-100.00,North,351,5.0,9.0,87,-99.99,,,0.00,0.000000,,2013-01-16 11:11:00,
2013-01-16 03:42:00,37.0,33.0,-100.00,North,354,5.0,11.0,85,-99.99,,,0.00,0.000000,,2013-01-16 11:42:00,
2013-01-16 03:53:00,37.0,33.0,-100.00,North,354,5.0,11.0,85,-99.99,,,0.00,0.000000,,2013-01-16 11:53:00,
2013-01-16 04:02:00,37.0,33.0,-100.00,North,354,5.0,11.0,85,-99.99,,,0.00,0.000000,,2013-01-16 12:02:00,
2013-01-16 04:12:00,37.0,33.0,-100.00,North,354,5.0,11.0,85,-99.99,,,0.00,0.000000,,2013-01-16 12:12:00,
2013-01-16 04:33:00,38.0,33.0,-100.00,NNE,16,3.0,7.0,82,-99.99,,,0.00,0.000000,,2013-01-16 12:33:00,
2013-01-16 04:43:00,38.0,33.0,-100.00,NNE,16,3.0,7.0,82,-99.99,,,0.00,0.000000,,2013-01-16 12:43:00,
2013-01-16 04:53:00,38.0,33.0,-100.00,NNE,16,3.0,7.0,82,-99.99,,,0.00,0.000000,,2013-01-16 12:53:00,
2013-01-16 05:02:00,38.0,33.0,-100.00,NNE,16,3.0,7.0,82,-99.99,,,0.00,0.000000,,2013-01-16 13:02:00,
2013-01-16 05:12:00,38.0,33.0,-100.00,NNE,16,3.0,7.0,82,-99.99,,,0.00,0.000000,,2013-01-16 13:12:00,
2013-01-16 05:33:00,37.0,32.0,-100.00,North,9,2.0,6.0,81,-99.99,,,0.00,0.000000,,2013-01-16 13:33:00,
2013-01-16 05:42:00,37.0,32.0,-100.00,North,9,2.0,6.0,81,-99.99,,,0.00,0.000000,,2013-01-16 13:42:00,
2013-01-16 05:53:00,37.0,32.0,-100.00,North,9,2.0,6.0,81,-99.99,,,0.00,0.000000,,2013-01-16 13:53:00,
2013-01-16 06:02:00,37.0,32.0,-100.00,North,9,2.0,6.0,81,-99.99,,,0.00,0.000000,,2013-01-16 14:02:00,
2013-01-16 06:12:00,37.0,32.0,-100.00,North,9,2.0,6.0,81,-99.99,,,0.00,0.000000,,2013-01-16 14:12:00,
2013-01-16 06:42:00,36.0,32.0,-100.00,North,359,4.0,8.0,85,-99.99,,,0.00,0.000000,,2013-01-16 14:42:00,
2013-01-16 06:53:00,36.0,32.0,-100.00,North,359,4.0,8.0,85,-99.99,,,0.00,0.000000,,2013-01-16 14:53:00,
2013-01-16 07:02:00,36.0,32.0,-100.00,North,359,4.0,8.0,85,-99.99,,,0.00,0.000000,,2013-01-16 15:02:00,
2013-01-16 07:12:00,36.0,32.0,-100.00,North,359,4.0,8.0,85,-99.99,,,0.00,0.000000,,2013-01-16 15:12:00,
2013-01-16 07:43:00,38.0,32.0,-100.00,NNE,23,4.0,8.0,79,-99.99,,,0.00,0.120000,,2013-01-16 15:43:00,
2013-01-16 07:53:00,38.0,32.0,-100.00,NNE,23,4.0,8.0,79,-99.99,,,0.00,0.120000,,2013-01-16 15:53:00,
2013-01-16 08:03:00,38.0,32.0,-100.00,NNE,23,4.0,8.0,79,-99.99,,,0.00,0.120000,,2013-01-16 16:03:00,
2013-01-16 08:12:00,38.0,32.0,-100.00,NNE,23,4.0,8.0,79,-99.99,,,0.00,0.120000,,2013-01-16 16:12:00,
2013-01-16 08:42:00,38.0,31.0,-100.00,North,0,3.0,5.0,75,-99.99,,,0.00,14.530000,,2013-01-16 16:42:00,
2013-01-16 08:53:00,38.0,31.0,-100.00,North,0,3.0,5.0,75,-99.99,,,0.00,14.530000,,2013-01-16 16:53:00,
2013-01-16 09:02:00,38.0,31.0,-100.00,North,0,3.0,5.0,75,-99.99,,,0.00,14.530000,,2013-01-16 17:02:00,
2013-01-16 09:12:00,38.0,31.0,-100.00,North,0,3.0,5.0,75,-99.99,,,0.00,14.530000,,2013-01-16 17:12:00,
2013-01-16 09:43:00,44.0,32.0,-100.00,NE,34,4.0,9.0,62,-99.99,,,0.00,196.179993,,2013-01-16 17:43:00,
2013-01-16 09:53:00,44.0,32.0,-100.00,NE,34,4.0,9.0,62,-99.99,,,0.00,196.179993,,2013-01-16 17:53:00,
2013-01-16 10:12:00,44.0,32.0,-100.00,NE,34,4.0,9.0,62,-99.99,,,0.00,196.179993,,2013-01-16 18:12:00,
2013-01-16 10:33:00,48.0,34.0,-100.00,North,2,4.0,7.0,59,-99.99,,,0.00,328.790009,,2013-01-16 18:33:00,
2013-01-16 11:12:00,48.0,34.0,-100.00,North,2,4.0,7.0,59,-99.99,,,0.00,328.790009,,2013-01-16 19:12:00,
2013-01-16 11:42:00,51.0,34.0,-100.00,NNE,16,5.0,11.0,53,-99.99,,,0.00,424.549988,,2013-01-16 19:42:00,
2013-01-16 11:53:00,51.0,34.0,-100.00,NNE,16,5.0,11.0,53,-99.99,,,0.00,424.549988,,2013-01-16 19:53:00,
2013-01-16 12:03:00,51.0,34.0,-100.00,NNE,16,5.0,11.0,53,-99.99,,,0.00,424.549988,,2013-01-16 20:03:00,
2013-01-16 12:12:00,51.0,34.0,-100.00,NNE,16,5.0,11.0,53,-99.99,,,0.00,424.549988,,2013-01-16 20:12:00,
2013-01-16 12:42:00,53.0,33.0,-100.00,NNE,33,6.0,12.0,47,-99.99,,,0.00,470.459991,,2013-01-16 20:42:00,
2013-01-16 12:53:00,53.0,33.0,-100.00,NNE,33,6.0,12.0,47,-99.99,,,0.00,470.459991,,2013-01-16 20:53:00,
2013-01-16 13:02:00,53.0,33.0,-100.00,NNE,33,6.0,12.0,47,-99.99,,,0.00,470.459991,,2013-01-16 21:02:00,
2013-01-16 13:43:00,57.0,34.0,-100.00,NNE,14,5.0,10.0,41,-99.99,,,0.00,454.890015,,2013-01-16 21:43:00,
2013-01-16 13:53:00,57.0,34.0,-100.00,NNE,14,5.0,10.0,41,-99.99,,,0.00,454.890015,,2013-01-16 21:53:00,
2013-01-16 14:02:00,57.0,34.0,-100.00,NNE,14,5.0,10.0,41,-99.99,,,0.00,454.890015,,2013-01-16 22:02:00,
2013-01-16 14:12:00,57.0,34.0,-100.00,NNE,14,5.0,10.0,41,-99.99,,,0.00,454.890015,,2013-01-16 22:12:00,
2013-01-16 14:43:00,60.0,35.0,-100.00,NE,37,5.0,10.0,39,-99.99,,,0.00,396.429993,,2013-01-16 22:43:00,
2013-01-16 14:52:00,60.0,35.0,-100.00,NE,37,5.0,10.0,39,-99.99,,,0.00,396.429993,,2013-01-16 22:52:00,
2013-01-16 15:02:00,60.0,35.0,-100.00,NE,37,5.0,10.0,39,-99.99,,,0.00,396.429993,,2013-01-16 23:02:00,
2013-01-16 15:12:00,60.0,35.0,-100.00,NE,37,5.0,10.0,39,-99.99,,,0.00,396.429993,,2013-01-16 23:12:00,
2013-01-16 15:42:00,57.0,42.0,-100.00,North,354,6.0,8.0,57,-99.99,,,0.00,284.160004,,2013-01-16 23:42:00,
2013-01-16 15:53:00,57.0,42.0,-100.00,North,354,6.0,8.0,57,-99.99,,,0.00,284.160004,,2013-01-16 23:53:00,
2013-01-16 16:02:00,57.0,42.0,-100.00,North,354,6.0,8.0,57,-99.99,,,0.00,284.160004,,2013-01-17 00:02:00,
2013-01-16 16:12:00,57.0,42.0,-100.00,North,354,6.0,8.0,57,-99.99,,,0.00,284.160004,,2013-01-17 00:12:00,
2013-01-16 16:32:00,56.0,42.0,-100.00,North,356,4.0,6.0,59,-99.99,,,0.00,46.020000,,2013-01-17 00:32:00,
2013-01-16 16:42:00,56.0,42.0,-100.00,North,356,4.0,6.0,59,-99.99,,,0.00,46.020000,,2013-01-17 00:42:00,
2013-01-16 16:52:00,56.0,42.0,-100.00,North,356,4.0,6.0,59,-99.99,,,0.00,46.020000,,2013-01-17 00:52:00,
2013-01-16 17:02:00,56.0,42.0,-100.00,North,356,4.0,6.0,59,-99.99,,,0.00,46.020000,,2013-01-17 01:02:00,
2013-01-16 17:12:00,56.0,42.0,-100.00,North,356,4.0,6.0,59,-99.99,,,0.00,46.020000,,2013-01-17 01:12:00,
2013-01-16 17:32:00,51.0,40.0,-100.00,North,349,2.0,3.0,65,-99.99,,,0.00,6.160000,,2013-01-17 01:32:00,
2013-01-16 17:42:00,51.0,40.0,-100.00,North,349,2.0,3.0,65,-99.99,,,0.00,6.160000,,2013-01-17 01:42:00,
2013-01-16 17:52:00,51.0,40.0,-100.00,North,349,2.0,3.0,65,-99.99,,,0.00,6.160000,,2013-01-17 01:52:00,
2013-01-16 18:02:00,51.0,40.0,-100.00,North,349,2.0,3.0,65,-99.99,,,0.00,6.160000,,2013-01-17 02:02:00,
2013-01-16 18:12:00,51.0,40.0,-100.00,North,349,2.0,3.0,65,-99.99,,,0.00,6.160000,,2013-01-17 02:12:00,
2013-01-16 19:02:00,47.0,36.0,-100.00,North,7,2.0,4.0,64,-99.99,,,0.00,0.000000,,2013-01-17 03:02:00,
2013-01-16 19:12:00,47.0,36.0,-100.00,North,7,2.0,4.0,64,-99.99,,,0.00,0.000000,,2013-01-17 03:12:00,
2013-01-16 19:42:00,50.0,33.0,-100.00,NNE,29,3.0,7.0,52,-99.99,,,0.00,0.000000,,2013-01-17 03:42:00,
2013-01-16 19:52:00,50.0,33.0,-100.00,NNE,29,3.0,7.0,52,-99.99,,,0.00,0.000000,,2013-01-17 03:52:00,
2013-01-16 20:02:00,50.0,33.0,-100.00,NNE,29,3.0,7.0,52,-99.99,,,0.00,0.000000,,2013-01-17 04:02:00,
2013-01-16 20:42:00,46.0,33.0,-100.00,North,354,2.0,5.0,59,-99.99,,,0.00,0.000000,,2013-01-17 04:42:00,
2013-01-16 20:52:00,46.0,33.0,-100.00,North,354,2.0,5.0,59,-99.99,,,0.00,0.000000,,2013-01-17 04:52:00,
2013-01-16 21:04:00,46.0,33.0,-100.00,North,354,2.0,5.0,59,-99.99,,,0.00,0.000000,,2013-01-17 05:04:00,
2013-01-16 21:12:00,46.0,33.0,-100.00,North,354,2.0,5.0,59,-99.99,,,0.00,0.000000,,2013-01-17 05:12:00,
2013-01-16 21:42:00,45.0,33.0,-100.00,North,355,2.0,4.0,62,-99.99,,,0.00,0.000000,,2013-01-17 05:42:00,
2013-01-16 21:53:00,45.0,33.0,-100.00,North,355,2.0,4.0,62,-99.99,,,0.00,0.000000,,2013-01-17 05:53:00,
2013-01-16 22:02:00,45.0,33.0,-100.00,North,355,2.0,4.0,62,-99.99,,,0.00,0.000000,,2013-01-17 06:02:00,
2013-01-16 22:11:00,45.0,33.0,-100.00,North,355,2.0,4.0,62,-99.99,,,0.00,0.000000,,2013-01-17 06:11:00,
2013-01-16 22:32:00,43.0,34.0,-100.00,North,356,3.0,5.0,70,-99.99,,,0.00,0.000000,,2013-01-17 06:32:00,
2013-01-16 22:42:00,43.0,34.0,-100.00,North,356,3.0,5.0,70,-99.99,,,0.00,0.000000,,2013-01-17 06:42:00,
2013-01-16 22:52:00,43.0,34.0,-100.00,North,356,3.0,5.0,70,-99.99,,,0.00,0.000000,,2013-01-17 06:52:00,
2013-01-16 23:02:00,43.0,34.0,-100.00,North,356,3.0,5.0,70,-99.99,,,0.00,0.000000,,2013-01-17 07:02:00,
2013-01-16 23:11:00,43.0,34.0,-100.00,North,356,3.0,5.0,70,-99.99,,,0.00,0.000000,,2013-01-17 07:11:00,
2013-01-16 23:42:00,45.0,36.0,-100.00,NNE,19,3.0,6.0,70,-99.99,,,0.00,0.000000,,2013-01-17 07:42:00,
2013-01-16 23:52:00,45.0,36.0,-100.00,NNE,19,3.0,6.0,70,-99.99,,,0.00,0.000000,,2013-01-17 07:52:00,